Thomson Majesty — 9HA2188 — position and weather

sailwx.info

Track history (hours):
 
Tides and Currents Weather Stations Pressure Air Temp Water Temp Dewpoint Dewpoint Depression Visibility Wind Speed Wind Dir Waves Ship Positions

Thomson Majesty

Last reported at 2017-Mar-19 06:29 UTC. Time now 2017-Mar-23 12:23 UTC.
Position N 29°19' W 015°49'.

Length 207 m; draft 6.2 m.

Type: Ship. MMSI: 248124000.

Date/timePositionNaut miles runAvg speedWind from/ knotsBaromVisibWave heightAir tempDewpointWater temp
2017-Mar-19 06:29N 29°19' W 015°49'1410.2
2017-Mar-19 05:06N 29°06' W 015°44'2010.6
2017-Mar-19 03:12N 28°47' W 015°36'910.7
2017-Mar-19 02:21N 28°38' W 015°32'1010.8
2017-Mar-19 01:28N 28°29' W 015°29'1010.8
2017-Mar-19 00:31N 28°20' W 015°25'11 0.7
2017-Mar-18 07:16N 28°08' W 015°25'6 8.3
2017-Mar-18 06:30N 28°13' W 015°20'1312.8
2017-Mar-18 05:28N 28°26' W 015°22'1313.7
2017-Mar-18 04:31N 28°28' W 015°37'1715.8
2017-Mar-18 03:26N 28°22' W 015°55'16 0.7
2017-Mar-17 05:32N 28°29' W 016°12'1815.8
2017-Mar-17 04:25N 28°30' W 015°52'1515.8
2017-Mar-17 03:29N 28°39' W 015°39'1613.6
2017-Mar-17 02:19N 28°41' W 015°21'6212.8
2017-Mar-16 21:29N 28°47' W 014°10'1111.9
2017-Mar-16 20:33N 28°48' W 013°58'1211.6
2017-Mar-16 19:33N 28°49' W 013°44'1212.1
2017-Mar-16 18:33N 28°56' W 013°33'2 2.3
2017-Mar-16 17:30N 28°58' W 013°32'0 0.0
2017-Mar-16 16:30N 28°58' W 013°32'0 0.0
2017-Mar-16 15:30N 28°58' W 013°32'0 0.0
2017-Mar-16 14:30N 28°58' W 013°32'0 0.0
2017-Mar-16 13:30N 28°58' W 013°32'0 0.0
2017-Mar-16 11:24N 28°58' W 013°32'0 0.0
2017-Mar-16 10:12N 28°58' W 013°32'0 0.0
2017-Mar-16 09:30N 28°58' W 013°32'0 0.0
2017-Mar-16 08:30N 28°58' W 013°32'0 0.3
2017-Mar-16 07:33N 28°58' W 013°32'1211.9
2017-Mar-16 06:32N 28°47' W 013°39'6 6.3
2017-Mar-16 05:33N 28°42' W 013°43'2 2.0
2017-Mar-16 04:33N 28°44' W 013°42'2 1.7
2017-Mar-16 03:33N 28°46' W 013°42'1 1.3
2017-Mar-16 02:33N 28°47' W 013°41'1 1.3
2017-Mar-16 01:33N 28°48' W 013°41'1 1.4
2017-Mar-16 00:32N 28°50' W 013°40'1 1.4
2017-Mar-15 23:33N 28°51' W 013°39'1 1.4
2017-Mar-15 22:32N 28°52' W 013°39'1 0.9
2017-Mar-15 21:33N 28°53' W 013°38'1110.8
2017-Mar-15 20:33N 28°48' W 013°50'1211.1
2017-Mar-15 19:30N 28°57' W 013°59'  
2017-Mar-13 08:33N 32°26' W 016°57'1414.4
2017-Mar-13 07:33N 32°11' W 016°60'1514.1
2017-Mar-13 06:32N 31°57' W 017°02'2913.8
2017-Mar-13 04:25N 31°28' W 017°08'1513.6
2017-Mar-13 03:20N 31°14' W 017°11'8013.7
2017-Mar-12 21:30N 29°55' W 017°27'1212.6
2017-Mar-12 20:33N 29°44' W 017°30'13 9.6
2017-Mar-12 19:13N 29°31' W 017°32'8 9.7
2017-Mar-12 18:25N 29°23' W 017°34'58 4.3
2017-Mar-12 05:05N 28°39' W 016°51'1116.0
2017-Mar-12 04:22N 28°39' W 016°38'1316.1
2017-Mar-12 03:33N 28°39' W 016°23'1615.6
2017-Mar-12 02:33N 28°37' W 016°06'1615.9
2017-Mar-12 01:33N 28°28' W 015°51'1616.1
2017-Mar-12 00:33N 28°19' W 015°35'1515.3
2017-Mar-11 23:33N 28°09' W 015°22'3 3.2
2017-Mar-11 22:32N 28°08' W 015°25'0 0.0
2017-Mar-11 21:23N 28°08' W 015°25'0 0.0
2017-Mar-11 20:26N 28°08' W 015°25'0 0.0
2017-Mar-11 19:26N 28°08' W 015°25'0 0.0
2017-Mar-11 18:29N 28°08' W 015°25'0 0.0
2017-Mar-11 17:29N 28°08' W 015°25'0 0.0
2017-Mar-11 16:29N 28°08' W 015°25'0 0.0
2017-Mar-11 15:29N 28°08' W 015°25'0 0.0
2017-Mar-11 14:32N 28°08' W 015°25'0 0.0
2017-Mar-11 13:29N 28°08' W 015°25'0 0.0
2017-Mar-11 12:32N 28°08' W 015°25'0 0.0
2017-Mar-11 11:32N 28°08' W 015°25'0 0.0
2017-Mar-11 10:32N 28°08' W 015°25'0 0.0
2017-Mar-11 09:29N 28°08' W 015°25'0 0.0
2017-Mar-11 08:29N 28°08' W 015°25'0 0.0
2017-Mar-11 07:33N 28°08' W 015°25'5 5.2
2017-Mar-11 06:33N 28°12' W 015°21'1111.2
2017-Mar-11 05:33N 28°23' W 015°18'1111.2
2017-Mar-11 04:33N 28°29' W 015°28'1211.4
2017-Mar-11 03:33N 28°34' W 015°40'1212.2
2017-Mar-11 02:33N 28°25' W 015°49'1111.5
2017-Mar-11 01:33N 28°24' W 016°02'1212.0
2017-Mar-11 00:33N 28°29' W 016°14'1 0.5
2017-Mar-10 23:26N 28°28' W 016°15'0 0.0
2017-Mar-10 22:29N 28°28' W 016°15'0 0.0
2017-Mar-10 21:29N 28°28' W 016°15'0 0.0
2017-Mar-10 20:32N 28°28' W 016°15'0 0.0
2017-Mar-10 19:32N 28°28' W 016°15'0 0.0
2017-Mar-10 18:32N 28°28' W 016°15'0 0.0
2017-Mar-10 17:05N 28°28' W 016°15'0 0.0
2017-Mar-10 16:20N 28°28' W 016°15'0 0.0
2017-Mar-10 15:32N 28°28' W 016°15'0 0.0
2017-Mar-10 14:23N 28°28' W 016°15'0 0.0
2017-Mar-10 13:23N 28°28' W 016°15'0 0.0
2017-Mar-10 12:20N 28°28' W 016°15'0 0.0
2017-Mar-10 11:23N 28°28' W 016°15'0 0.0
2017-Mar-10 10:29N 28°28' W 016°15'0 0.0
2017-Mar-10 09:29N 28°28' W 016°15'0 0.0
2017-Mar-10 08:29N 28°28' W 016°15'0 0.0
2017-Mar-10 07:32N 28°28' W 016°15'0 0.0
2017-Mar-10 06:32N 28°28' W 016°15'0 0.0
2017-Mar-10 05:32N 28°28' W 016°15'9 8.8
2017-Mar-10 04:33N 28°27' W 016°05'1211.9
2017-Mar-10 03:33N 28°30' W 015°52'1312.6
2017-Mar-10 02:33N 28°39' W 015°41'1312.9
2017-Mar-10 01:33N 28°40' W 015°27'1313.0
2017-Mar-10 00:33N 28°42' W 015°12'1313.1
2017-Mar-09 23:33N 28°43' W 014°57'1313.1
2017-Mar-09 22:33N 28°44' W 014°42'1313.0
2017-Mar-09 21:33N 28°46' W 014°27'1312.8
2017-Mar-09 20:33N 28°47' W 014°13'1313.0
2017-Mar-09 19:32N 28°48' W 013°58'1111.2
2017-Mar-09 18:33N 28°46' W 013°46'1313.0
2017-Mar-09 17:33N 28°33' W 013°48'5 3.9
2017-Mar-09 16:23N 28°30' W 013°51'0 0.0
2017-Mar-09 15:26N 28°30' W 013°51'0 0.0
2017-Mar-09 14:11N 28°30' W 013°51'0 0.0
2017-Mar-09 13:17N 28°30' W 013°51'0 0.0
2017-Mar-09 12:29N 28°30' W 013°51'0 0.0
2017-Mar-09 11:29N 28°30' W 013°51'0 0.0
2017-Mar-09 10:17N 28°30' W 013°51'0 0.0
2017-Mar-09 09:17N 28°30' W 013°51'0 0.0
2017-Mar-09 08:29N 28°30' W 013°51'0 0.5
2017-Mar-09 07:32N 28°29' W 013°51'4 4.3
2017-Mar-09 06:33N 28°30' W 013°46'  
Track history (hours):
 
Tides and Currents Weather Stations Pressure Air Temp Water Temp Dewpoint Dewpoint Depression Visibility Wind Speed Wind Dir Waves Ship Positions

Thomson Majesty

Last reported at 2017-Mar-19 06:29 UTC. Time now 2017-Mar-23 12:23 UTC.
Position N 29°19' W 015°49'.

Length 207 m; draft 6.2 m.

Type: Ship. MMSI: 248124000.

Date/timePositionNaut miles runAvg speedWind from/ knotsBaromVisibWave heightAir tempDewpointWater temp
2017-Mar-19 06:29N 29°19' W 015°49'1410.2
2017-Mar-19 05:06N 29°06' W 015°44'2010.6
2017-Mar-19 03:12N 28°47' W 015°36'910.7
2017-Mar-19 02:21N 28°38' W 015°32'1010.8
2017-Mar-19 01:28N 28°29' W 015°29'1010.8
2017-Mar-19 00:31N 28°20' W 015°25'11 0.7
2017-Mar-18 07:16N 28°08' W 015°25'6 8.3
2017-Mar-18 06:30N 28°13' W 015°20'1312.8
2017-Mar-18 05:28N 28°26' W 015°22'1313.7
2017-Mar-18 04:31N 28°28' W 015°37'1715.8
2017-Mar-18 03:26N 28°22' W 015°55'16 0.7
2017-Mar-17 05:32N 28°29' W 016°12'1815.8
2017-Mar-17 04:25N 28°30' W 015°52'1515.8
2017-Mar-17 03:29N 28°39' W 015°39'1613.6
2017-Mar-17 02:19N 28°41' W 015°21'6212.8
2017-Mar-16 21:29N 28°47' W 014°10'1111.9
2017-Mar-16 20:33N 28°48' W 013°58'1211.6
2017-Mar-16 19:33N 28°49' W 013°44'1212.1
2017-Mar-16 18:33N 28°56' W 013°33'2 2.3
2017-Mar-16 17:30N 28°58' W 013°32'0 0.0
2017-Mar-16 16:30N 28°58' W 013°32'0 0.0
2017-Mar-16 15:30N 28°58' W 013°32'0 0.0
2017-Mar-16 14:30N 28°58' W 013°32'0 0.0
2017-Mar-16 13:30N 28°58' W 013°32'0 0.0
2017-Mar-16 11:24N 28°58' W 013°32'0 0.0
2017-Mar-16 10:12N 28°58' W 013°32'0 0.0
2017-Mar-16 09:30N 28°58' W 013°32'0 0.0
2017-Mar-16 08:30N 28°58' W 013°32'0 0.3
2017-Mar-16 07:33N 28°58' W 013°32'1211.9
2017-Mar-16 06:32N 28°47' W 013°39'6 6.3
2017-Mar-16 05:33N 28°42' W 013°43'2 2.0
2017-Mar-16 04:33N 28°44' W 013°42'2 1.7
2017-Mar-16 03:33N 28°46' W 013°42'1 1.3
2017-Mar-16 02:33N 28°47' W 013°41'1 1.3
2017-Mar-16 01:33N 28°48' W 013°41'1 1.4
2017-Mar-16 00:32N 28°50' W 013°40'1 1.4
2017-Mar-15 23:33N 28°51' W 013°39'1 1.4
2017-Mar-15 22:32N 28°52' W 013°39'1 0.9
2017-Mar-15 21:33N 28°53' W 013°38'1110.8
2017-Mar-15 20:33N 28°48' W 013°50'1211.1
2017-Mar-15 19:30N 28°57' W 013°59'  
2017-Mar-13 08:33N 32°26' W 016°57'1414.4
2017-Mar-13 07:33N 32°11' W 016°60'1514.1
2017-Mar-13 06:32N 31°57' W 017°02'2913.8
2017-Mar-13 04:25N 31°28' W 017°08'1513.6
2017-Mar-13 03:20N 31°14' W 017°11'8013.7
2017-Mar-12 21:30N 29°55' W 017°27'1212.6
2017-Mar-12 20:33N 29°44' W 017°30'13 9.6
2017-Mar-12 19:13N 29°31' W 017°32'8 9.7
2017-Mar-12 18:25N 29°23' W 017°34'58 4.3
2017-Mar-12 05:05N 28°39' W 016°51'1116.0
2017-Mar-12 04:22N 28°39' W 016°38'1316.1
2017-Mar-12 03:33N 28°39' W 016°23'1615.6
2017-Mar-12 02:33N 28°37' W 016°06'1615.9
2017-Mar-12 01:33N 28°28' W 015°51'1616.1
2017-Mar-12 00:33N 28°19' W 015°35'1515.3
2017-Mar-11 23:33N 28°09' W 015°22'3 3.2
2017-Mar-11 22:32N 28°08' W 015°25'0 0.0
2017-Mar-11 21:23N 28°08' W 015°25'0 0.0
2017-Mar-11 20:26N 28°08' W 015°25'0 0.0
2017-Mar-11 19:26N 28°08' W 015°25'0 0.0
2017-Mar-11 18:29N 28°08' W 015°25'0 0.0
2017-Mar-11 17:29N 28°08' W 015°25'0 0.0
2017-Mar-11 16:29N 28°08' W 015°25'0 0.0
2017-Mar-11 15:29N 28°08' W 015°25'0 0.0
2017-Mar-11 14:32N 28°08' W 015°25'0 0.0
2017-Mar-11 13:29N 28°08' W 015°25'0 0.0
2017-Mar-11 12:32N 28°08' W 015°25'0 0.0
2017-Mar-11 11:32N 28°08' W 015°25'0 0.0
2017-Mar-11 10:32N 28°08' W 015°25'0 0.0
2017-Mar-11 09:29N 28°08' W 015°25'0 0.0
2017-Mar-11 08:29N 28°08' W 015°25'0 0.0
2017-Mar-11 07:33N 28°08' W 015°25'5 5.2
2017-Mar-11 06:33N 28°12' W 015°21'1111.2
2017-Mar-11 05:33N 28°23' W 015°18'1111.2
2017-Mar-11 04:33N 28°29' W 015°28'1211.4
2017-Mar-11 03:33N 28°34' W 015°40'1212.2
2017-Mar-11 02:33N 28°25' W 015°49'1111.5
2017-Mar-11 01:33N 28°24' W 016°02'1212.0
2017-Mar-11 00:33N 28°29' W 016°14'1 0.5
2017-Mar-10 23:26N 28°28' W 016°15'0 0.0
2017-Mar-10 22:29N 28°28' W 016°15'0 0.0
2017-Mar-10 21:29N 28°28' W 016°15'0 0.0
2017-Mar-10 20:32N 28°28' W 016°15'0 0.0
2017-Mar-10 19:32N 28°28' W 016°15'0 0.0
2017-Mar-10 18:32N 28°28' W 016°15'0 0.0
2017-Mar-10 17:05N 28°28' W 016°15'0 0.0
2017-Mar-10 16:20N 28°28' W 016°15'0 0.0
2017-Mar-10 15:32N 28°28' W 016°15'0 0.0
2017-Mar-10 14:23N 28°28' W 016°15'0 0.0
2017-Mar-10 13:23N 28°28' W 016°15'0 0.0
2017-Mar-10 12:20N 28°28' W 016°15'0 0.0
2017-Mar-10 11:23N 28°28' W 016°15'0 0.0
2017-Mar-10 10:29N 28°28' W 016°15'0 0.0
2017-Mar-10 09:29N 28°28' W 016°15'0 0.0
2017-Mar-10 08:29N 28°28' W 016°15'0 0.0
2017-Mar-10 07:32N 28°28' W 016°15'0 0.0
2017-Mar-10 06:32N 28°28' W 016°15'0 0.0
2017-Mar-10 05:32N 28°28' W 016°15'9 8.8
2017-Mar-10 04:33N 28°27' W 016°05'1211.9
2017-Mar-10 03:33N 28°30' W 015°52'1312.6
2017-Mar-10 02:33N 28°39' W 015°41'1312.9
2017-Mar-10 01:33N 28°40' W 015°27'1313.0
2017-Mar-10 00:33N 28°42' W 015°12'1313.1
2017-Mar-09 23:33N 28°43' W 014°57'1313.1
2017-Mar-09 22:33N 28°44' W 014°42'1313.0
2017-Mar-09 21:33N 28°46' W 014°27'1312.8
2017-Mar-09 20:33N 28°47' W 014°13'1313.0
2017-Mar-09 19:32N 28°48' W 013°58'1111.2
2017-Mar-09 18:33N 28°46' W 013°46'1313.0
2017-Mar-09 17:33N 28°33' W 013°48'5 3.9
2017-Mar-09 16:23N 28°30' W 013°51'0 0.0
2017-Mar-09 15:26N 28°30' W 013°51'0 0.0
2017-Mar-09 14:11N 28°30' W 013°51'0 0.0
2017-Mar-09 13:17N 28°30' W 013°51'0 0.0
2017-Mar-09 12:29N 28°30' W 013°51'0 0.0
2017-Mar-09 11:29N 28°30' W 013°51'0 0.0
2017-Mar-09 10:17N 28°30' W 013°51'0 0.0
2017-Mar-09 09:17N 28°30' W 013°51'0 0.0
2017-Mar-09 08:29N 28°30' W 013°51'0 0.5
2017-Mar-09 07:32N 28°29' W 013°51'4 4.3
2017-Mar-09 06:33N 28°30' W 013°46'  

Dump ship's entire track history